Time;durP1;ratioP1;P1;durP2;ratioP2;P2;SDS_P1;SDS_P2;PMS_P1;PMS_P2;Temp;Humidity;BMP_temperature;BMP_pressure;BME280_temperature;BME280_humidity;BME280_pressure;Samples;Min_cycle;Max_cycle;Signal;HPM_P1;HPM_P2
2022/03/05 00:00:30;;;;;;;12.82;4.00;;;;;;;12.59;37.89;102649.34;4976274;28;20034;-75
2022/03/05 00:02:56;;;;;;;11.68;4.40;;;;;;;12.57;37.79;102637.03;4975894;28;20027;-74
2022/03/05 00:05:22;;;;;;;15.40;4.75;;;;;;;12.54;37.98;102645.78;4976180;28;20030;-75
2022/03/05 00:07:48;;;;;;;8.27;4.10;;;;;;;12.59;37.66;102646.59;4976001;28;20029;-75
2022/03/05 00:10:14;;;;;;;13.07;5.88;;;;;;;12.52;37.88;102642.53;4976198;28;20023;-75
2022/03/05 00:12:40;;;;;;;9.27;4.22;;;;;;;12.54;37.83;102648.53;4975973;28;20031;-75
2022/03/05 00:15:06;;;;;;;8.60;4.00;;;;;;;12.65;37.59;102648.22;4975810;28;20027;-74
2022/03/05 00:17:32;;;;;;;8.05;4.13;;;;;;;12.67;37.41;102656.16;4975944;28;20482;-74
2022/03/05 00:19:58;;;;;;;7.45;3.85;;;;;;;12.64;37.60;102654.81;4975875;28;20034;-74
2022/03/05 00:22:24;;;;;;;8.10;3.88;;;;;;;12.62;37.54;102648.81;4975899;28;20062;-75
2022/03/05 00:24:50;;;;;;;6.50;3.88;;;;;;;12.60;37.58;102663.88;4975986;28;20026;-74
2022/03/05 00:27:16;;;;;;;6.97;3.45;;;;;;;12.55;37.61;102664.72;4976040;28;20576;-74
2022/03/05 00:29:42;;;;;;;6.45;3.53;;;;;;;12.54;37.41;102665.81;4975710;28;20485;-74
2022/03/05 00:32:08;;;;;;;7.93;3.25;;;;;;;12.43;37.53;102662.28;4976000;28;20113;-75
2022/03/05 00:34:33;;;;;;;7.70;4.18;;;;;;;12.38;37.52;102659.56;4975500;28;20031;-75
2022/03/05 00:36:59;;;;;;;10.25;4.93;;;;;;;12.31;37.64;102666.44;4975389;28;20026;-74
2022/03/05 00:39:25;;;;;;;6.10;4.05;;;;;;;12.27;37.76;102676.31;4975385;28;20042;-74
2022/03/05 00:41:51;;;;;;;7.45;3.85;;;;;;;12.15;37.86;102669.19;4975497;28;20031;-75
2022/03/05 00:44:16;;;;;;;11.18;3.70;;;;;;;12.18;37.66;102674.16;4975411;28;20097;-75
2022/03/05 00:46:42;;;;;;;10.00;3.80;;;;;;;12.19;37.60;102684.00;4975382;28;20034;-76
2022/03/05 00:49:08;;;;;;;7.05;3.92;;;;;;;12.14;37.75;102684.00;4975380;28;20019;-81
2022/03/05 00:51:34;;;;;;;7.13;4.03;;;;;;;12.13;37.70;102682.38;4975382;28;20027;-75
2022/03/05 00:54:00;;;;;;;6.68;3.70;;;;;;;12.12;37.72;102683.47;4975200;28;20081;-75
2022/03/05 00:56:25;;;;;;;5.95;3.20;;;;;;;12.08;37.66;102685.09;4975327;28;20031;-75
2022/03/05 00:58:51;;;;;;;11.57;3.83;;;;;;;12.12;37.65;102685.38;4975083;28;20023;-75
2022/03/05 01:01:17;;;;;;;7.93;3.33;;;;;;;12.22;37.34;102675.22;4975118;28;20041;-77
2022/03/05 01:03:43;;;;;;;8.02;4.50;;;;;;;12.11;37.71;102679.09;4974867;28;20030;-75
2022/03/05 01:06:08;;;;;;;8.23;3.83;;;;;;;12.05;37.81;102676.63;4975040;28;20034;-75
2022/03/05 01:08:34;;;;;;;10.85;3.80;;;;;;;12.04;37.54;102673.06;4975011;28;20023;-75
2022/03/05 01:11:00;;;;;;;9.88;4.47;;;;;;;12.05;37.97;102673.88;4974867;28;20113;-75
2022/03/05 01:13:26;;;;;;;11.50;4.30;;;;;;;11.99;37.59;102683.19;4974811;28;20023;-75
2022/03/05 01:15:52;;;;;;;8.10;4.70;;;;;;;11.97;37.72;102682.66;4974171;28;20102;-75
2022/03/05 01:18:17;;;;;;;10.65;4.50;;;;;;;11.94;37.67;102681.31;4974758;28;20034;-75
2022/03/05 01:20:43;;;;;;;9.52;4.20;;;;;;;11.92;37.93;102680.72;4974597;28;20033;-75
2022/03/05 01:23:08;;;;;;;6.45;4.25;;;;;;;11.89;37.80;102692.25;4974673;28;20058;-75
2022/03/05 01:25:34;;;;;;;8.75;4.38;;;;;;;11.89;37.67;102684.03;4974556;28;20031;-75
2022/03/05 01:28:00;;;;;;;6.75;3.83;;;;;;;11.87;37.65;102683.50;4974616;28;20105;-75
2022/03/05 01:30:25;;;;;;;6.25;3.60;;;;;;;11.84;37.71;102681.28;4974525;28;20034;-75
2022/03/05 01:32:51;;;;;;;7.40;3.47;;;;;;;11.72;37.93;102688.94;4974411;28;20026;-75
2022/03/05 01:35:18;;;;;;;6.88;3.90;;;;;;;11.77;37.88;102684.28;4974348;28;20158;-75
2022/03/05 01:37:44;;;;;;;5.82;3.45;;;;;;;11.80;37.83;102685.66;4974208;28;20405;-75
2022/03/05 01:40:10;;;;;;;7.57;3.70;;;;;;;11.73;37.86;102685.09;4974366;28;20078;-76
2022/03/05 01:42:36;;;;;;;6.05;3.35;;;;;;;11.70;37.92;102685.63;4973984;28;20031;-75
2022/03/05 01:45:02;;;;;;;9.23;3.75;;;;;;;11.66;37.89;102688.09;4974412;28;20406;-75
2022/03/05 01:47:28;;;;;;;6.88;3.53;;;;;;;11.62;37.94;102689.72;4974217;28;20037;-75
2022/03/05 01:49:54;;;;;;;12.20;3.45;;;;;;;11.50;38.19;102689.19;4974326;28;20027;-75
2022/03/05 01:52:19;;;;;;;8.13;3.15;;;;;;;11.46;38.45;102685.34;4974221;28;20034;-75
2022/03/05 01:54:45;;;;;;;9.50;3.55;;;;;;;11.40;38.65;102688.06;4974501;28;20074;-86
2022/03/05 01:57:12;;;;;;;4.60;2.75;;;;;;;11.45;38.62;102691.91;4974122;28;20501;-75
2022/03/05 01:59:37;;;;;;;8.55;4.05;;;;;;;11.44;38.62;102691.09;4974105;28;20041;-75
2022/03/05 02:02:03;;;;;;;5.97;3.20;;;;;;;11.61;38.44;102696.31;4974351;28;20031;-79
2022/03/05 02:04:29;;;;;;;9.65;3.90;;;;;;;11.44;38.82;102693.84;4974043;28;20027;-75
2022/03/05 02:06:55;;;;;;;5.20;3.10;;;;;;;11.61;38.77;102696.31;4973964;28;20035;-75
2022/03/05 02:09:21;;;;;;;9.65;4.43;;;;;;;11.54;39.00;102696.56;4974251;28;20023;-75
2022/03/05 02:11:47;;;;;;;9.68;3.58;;;;;;;11.59;38.87;102690.28;4973929;28;20023;-75
2022/03/05 02:14:17;;;;;;;9.15;3.63;;;;;;;11.59;38.99;102706.72;4973926;28;20502;-76
2022/03/05 02:16:43;;;;;;;11.60;3.45;;;;;;;11.62;38.86;102696.03;4973677;28;20035;-75
2022/03/05 02:19:09;;;;;;;10.23;3.60;;;;;;;11.64;38.95;102701.25;4973891;28;20474;-75
2022/03/05 02:21:36;;;;;;;7.05;3.15;;;;;;;11.68;38.79;102692.22;4973776;28;20026;-76
2022/03/05 02:24:02;;;;;;;10.18;4.80;;;;;;;11.60;39.08;102691.94;4973759;28;20481;-76
2022/03/05 02:26:28;;;;;;;9.23;3.28;;;;;;;11.62;39.11;102697.94;4973650;28;20425;-75
2022/03/05 02:28:54;;;;;;;7.10;3.30;;;;;;;11.62;39.10;102687.81;4973834;28;20023;-77
2022/03/05 02:31:21;;;;;;;9.55;2.80;;;;;;;11.57;39.20;102689.75;4973602;28;20073;-74
2022/03/05 02:33:47;;;;;;;6.43;3.40;;;;;;;11.52;39.46;102696.03;4973770;28;20114;-75
2022/03/05 02:36:12;;;;;;;8.80;3.75;;;;;;;11.57;39.25;102690.56;4973586;28;20035;-86
2022/03/05 02:38:38;;;;;;;9.50;3.25;;;;;;;11.54;39.46;102699.31;4973502;28;20098;-74
2022/03/05 02:41:04;;;;;;;11.85;5.60;;;;;;;11.53;39.36;102692.19;4973849;28;20081;-75
2022/03/05 02:43:30;;;;;;;8.20;2.97;;;;;;;11.53;39.17;102699.59;4973546;28;20050;-75
2022/03/05 02:45:56;;;;;;;9.75;3.38;;;;;;;11.51;39.48;102704.53;4973503;28;20172;-75
2022/03/05 02:48:22;;;;;;;10.77;3.65;;;;;;;11.50;39.24;102711.91;4973546;28;20034;-75
2022/03/05 02:50:49;;;;;;;8.38;2.97;;;;;;;11.46;39.65;102709.97;4973815;28;20042;-75
2022/03/05 02:53:16;;;;;;;5.20;3.08;;;;;;;11.39;39.88;102715.72;4973527;28;20113;-75
2022/03/05 02:55:42;;;;;;;8.40;3.35;;;;;;;11.48;39.65;102708.59;4973463;28;20038;-75
2022/03/05 02:58:08;;;;;;;7.20;3.20;;;;;;;11.55;39.62;102720.13;4973548;28;20038;-75
2022/03/05 03:00:34;;;;;;;9.15;2.85;;;;;;;11.54;39.70;102723.94;4973583;28;20023;-75
2022/03/05 03:03:00;;;;;;;11.30;5.25;;;;;;;11.48;39.78;102727.75;4973551;28;20482;-90
2022/03/05 03:05:26;;;;;;;9.00;4.53;;;;;;;11.51;39.84;102724.50;4973502;28;20035;-74
2022/03/05 03:07:52;;;;;;;10.65;3.40;;;;;;;11.62;39.69;102730.81;4973449;28;20038;-75
2022/03/05 03:10:18;;;;;;;7.45;3.05;;;;;;;11.67;39.57;102730.81;4973319;28;20038;-75
2022/03/05 03:12:44;;;;;;;9.55;3.95;;;;;;;11.65;39.53;102730.28;4973318;28;20027;-77
2022/03/05 03:15:12;;;;;;;7.93;2.97;;;;;;;11.64;39.49;102729.47;4973356;28;20525;-88
2022/03/05 03:17:45;;;;;;;10.20;3.40;;;;;;;11.61;39.49;102735.47;4973361;28;20050;-77
2022/03/05 03:20:12;;;;;;;8.05;3.38;;;;;;;11.67;39.42;102739.88;4973216;28;20037;-75
2022/03/05 03:22:39;;;;;;;8.27;3.13;;;;;;;11.77;39.24;102739.03;4973303;28;20117;-87
2022/03/05 03:25:05;;;;;;;6.72;3.20;;;;;;;11.62;39.54;102733.53;4973239;28;20034;-75
2022/03/05 03:27:31;;;;;;;8.10;2.60;;;;;;;11.61;39.54;102746.41;4973183;28;20228;-75
2022/03/05 03:29:56;;;;;;;5.80;2.65;;;;;;;11.55;39.85;102742.03;4973199;28;20109;-75
2022/03/05 03:32:22;;;;;;;6.75;2.78;;;;;;;11.60;39.65;102736.56;4973204;28;20034;-75
2022/03/05 03:34:48;;;;;;;8.57;2.80;;;;;;;11.56;40.06;102740.94;4973118;28;20045;-76
2022/03/05 03:37:13;;;;;;;9.63;3.13;;;;;;;11.71;39.71;102742.88;4973210;28;20498;-75
2022/03/05 03:39:39;;;;;;;11.43;3.35;;;;;;;11.72;39.80;102740.97;4976493;28;20121;-75
2022/03/05 03:42:04;;;;;;;8.73;2.90;;;;;;;11.50;40.23;102738.47;4976793;28;20027;-75
2022/03/05 03:44:30;;;;;;;15.77;2.97;;;;;;;11.35;40.60;102742.81;4976777;28;20031;-75
2022/03/05 03:46:57;;;;;;;9.82;2.60;;;;;;;11.38;40.59;102736.78;4976594;28;20027;-76
2022/03/05 03:49:23;;;;;;;5.65;2.58;;;;;;;11.33;40.57;102738.69;4976616;28;20486;-75
2022/03/05 03:51:49;;;;;;;8.70;4.07;;;;;;;11.28;40.73;102744.97;4976407;28;20057;-75
2022/03/05 03:54:15;;;;;;;8.23;3.03;;;;;;;11.13;41.19;102746.84;4976397;28;20026;-76
2022/03/05 03:56:40;;;;;;;7.88;2.97;;;;;;;11.10;41.29;102740.78;4976210;28;20482;-75
2022/03/05 03:59:06;;;;;;;7.43;2.33;;;;;;;11.16;41.07;102744.38;4976396;28;20110;-75
2022/03/05 04:01:32;;;;;;;4.35;2.08;;;;;;;11.17;41.48;102745.19;4976295;28;20423;-75
2022/03/05 04:03:57;;;;;;;10.38;2.42;;;;;;;11.13;41.49;102749.56;4976322;28;20053;-75
2022/03/05 04:06:23;;;;;;;9.13;3.10;;;;;;;11.11;41.64;102758.88;4976403;28;20117;-75
2022/03/05 04:08:48;;;;;;;7.65;2.53;;;;;;;11.16;41.37;102751.75;4976021;28;20098;-74
2022/03/05 04:11:19;;;;;;;10.63;3.03;;;;;;;11.25;41.14;102753.72;4976107;28;20062;-75
2022/03/05 04:13:47;;;;;;;5.00;2.10;;;;;;;11.15;41.34;102752.84;4974393;28;20051;-75
2022/03/05 04:16:13;;;;;;;9.18;2.95;;;;;;;11.00;41.74;102756.34;4957962;28;20125;-75
2022/03/05 04:18:40;;;;;;;4.90;2.47;;;;;;;10.83;41.96;102759.28;4956668;29;20526;-75
2022/03/05 04:21:07;;;;;;;7.78;2.55;;;;;;;10.56;42.84;102762.94;4956604;29;20027;-75
2022/03/05 04:23:33;;;;;;;5.93;2.35;;;;;;;10.69;42.44;102758.94;4939510;28;20423;-75
2022/03/05 04:26:00;;;;;;;4.88;2.22;;;;;;;10.91;41.87;102758.78;4956398;29;20122;-75
2022/03/05 04:28:26;;;;;;;9.60;2.47;;;;;;;10.74;42.40;102766.34;4956352;29;20110;-75
2022/03/05 04:30:51;;;;;;;7.47;2.65;;;;;;;10.73;42.30;102762.78;4956380;29;20138;-75
2022/03/05 04:33:17;;;;;;;6.35;2.97;;;;;;;10.56;42.66;102764.84;4956465;29;20110;-74
2022/03/05 04:35:43;;;;;;;7.35;2.70;;;;;;;10.57;42.68;102766.50;4956224;29;20449;-75
2022/03/05 04:38:08;;;;;;;13.98;3.03;;;;;;;10.62;42.73;102768.44;4956189;29;20491;-74
2022/03/05 04:40:34;;;;;;;5.30;2.35;;;;;;;10.72;42.41;102777.53;4956443;29;20118;-75
2022/03/05 04:43:00;;;;;;;8.57;2.33;;;;;;;10.99;41.68;102773.84;4939080;28;20034;-75
2022/03/05 04:45:27;;;;;;;9.48;2.65;;;;;;;10.76;42.60;102777.84;4956132;29;20038;-74
2022/03/05 04:47:52;;;;;;;7.65;2.60;;;;;;;10.97;41.95;102771.41;4956075;29;20031;-89
2022/03/05 04:50:18;;;;;;;11.07;2.75;;;;;;;10.95;41.96;102778.19;4955079;28;20038;-88
2022/03/05 04:52:44;;;;;;;4.25;2.30;;;;;;;10.85;42.37;102787.19;4956161;29;20027;-75
2022/03/05 04:55:10;;;;;;;6.93;2.38;;;;;;;11.14;41.55;102778.56;4955933;29;20081;-75
2022/03/05 04:57:36;;;;;;;14.73;3.30;;;;;;;10.89;41.97;102787.50;4955851;29;20030;-79
2022/03/05 05:00:05;;;;;;;7.93;2.75;;;;;;;10.87;41.72;102795.94;4955788;29;20027;-75
2022/03/05 05:02:31;;;;;;;6.60;2.30;;;;;;;10.67;42.26;102796.66;4955790;29;20023;-75
2022/03/05 05:04:56;;;;;;;7.78;2.58;;;;;;;10.84;42.03;102797.31;4955625;29;20077;-75
2022/03/05 05:07:22;;;;;;;6.97;2.33;;;;;;;10.74;42.18;102802.72;4955746;29;20069;-75
2022/03/05 05:09:48;;;;;;;7.22;2.30;;;;;;;11.02;41.34;102806.97;4955739;29;20031;-75
2022/03/05 05:12:13;;;;;;;8.67;3.70;;;;;;;11.06;41.11;102807.28;4955766;29;20031;-75
2022/03/05 05:14:39;;;;;;;9.43;2.75;;;;;;;10.80;41.72;102811.75;4955517;29;20023;-85
2022/03/05 05:17:04;;;;;;;9.03;3.00;;;;;;;10.87;41.67;102823.28;4955484;29;20509;-74
2022/03/05 05:19:30;;;;;;;7.55;2.40;;;;;;;10.74;41.81;102827.31;4955367;29;20487;-75
2022/03/05 05:22:01;;;;;;;9.95;3.70;;;;;;;10.34;42.82;102830.56;4955523;29;20106;-74
2022/03/05 05:24:31;;;;;;;5.80;3.05;;;;;;;10.41;42.61;102831.16;4955406;29;20023;-75
2022/03/05 05:26:58;;;;;;;5.05;2.65;;;;;;;10.46;42.65;102830.41;4955445;29;20039;-76
2022/03/05 05:29:23;;;;;;;10.40;2.85;;;;;;;10.29;42.99;102833.25;4938260;28;20516;-75
2022/03/05 05:31:50;;;;;;;8.27;2.60;;;;;;;10.31;42.93;102830.28;4938220;28;20106;-75
2022/03/05 05:34:16;;;;;;;7.10;2.20;;;;;;;10.35;43.11;102834.13;4955291;29;20027;-75
2022/03/05 05:36:42;;;;;;;7.75;2.28;;;;;;;10.38;42.89;102830.88;4955151;29;20046;-75
2022/03/05 05:39:10;;;;;;;5.15;2.53;;;;;;;10.52;42.59;102830.19;4955024;29;20506;-75
2022/03/05 05:41:36;;;;;;;8.98;2.60;;;;;;;10.69;42.35;102846.44;4955107;29;20463;-75
2022/03/05 05:44:04;;;;;;;7.88;2.63;;;;;;;10.50;42.77;102840.56;4955194;29;20022;-75
2022/03/05 05:46:30;;;;;;;6.28;2.78;;;;;;;10.77;42.20;102845.09;4955040;29;20102;-74
2022/03/05 05:48:56;;;;;;;8.15;2.30;;;;;;;10.86;42.05;102848.16;4954940;29;20102;-75
2022/03/05 05:51:23;;;;;;;5.15;2.20;;;;;;;10.99;41.57;102850.44;4954983;29;20031;-75
2022/03/05 05:53:49;;;;;;;6.68;3.50;;;;;;;10.80;42.10;102850.03;4954976;29;20027;-74
2022/03/05 05:56:15;;;;;;;9.77;3.50;;;;;;;10.86;41.84;102854.47;4954754;29;20051;-75
2022/03/05 05:58:40;;;;;;;9.30;2.58;;;;;;;10.91;41.83;102849.03;4954921;29;20027;-74
2022/03/05 06:01:06;;;;;;;8.60;2.92;;;;;;;10.91;41.58;102854.50;4937172;29;20491;-74
2022/03/05 06:03:32;;;;;;;10.23;2.53;;;;;;;11.00;41.41;102854.84;4954743;29;20154;-75
2022/03/05 06:05:59;;;;;;;5.82;2.90;;;;;;;10.96;41.37;102857.28;4954668;29;20035;-75
2022/03/05 06:08:25;;;;;;;5.63;2.33;;;;;;;11.01;41.12;102862.75;4954780;29;20442;-75
2022/03/05 06:10:51;;;;;;;6.28;2.30;;;;;;;10.70;41.99;102867.22;4954631;29;20034;-75
2022/03/05 06:13:18;;;;;;;8.13;2.47;;;;;;;10.93;41.37;102874.22;4954575;29;20035;-74
2022/03/05 06:15:44;;;;;;;7.57;2.10;;;;;;;10.90;41.61;102874.75;4954499;29;20031;-75
2022/03/05 06:18:10;;;;;;;9.63;3.67;;;;;;;10.93;41.38;102882.41;4954733;29;20034;-75
2022/03/05 06:20:36;;;;;;;6.68;2.25;;;;;;;10.99;41.23;102884.09;4954742;29;20475;-75
2022/03/05 06:23:02;;;;;;;7.57;3.08;;;;;;;10.92;41.37;102883.50;4954614;29;20114;-75
2022/03/05 06:25:28;;;;;;;7.35;2.08;;;;;;;10.91;41.51;102886.50;4954471;29;20027;-75
2022/03/05 06:27:53;;;;;;;6.82;2.25;;;;;;;11.00;41.43;102885.75;4954541;29;20039;-74
2022/03/05 06:30:19;;;;;;;7.38;2.33;;;;;;;11.06;41.39;102886.59;4954485;29;20031;-75
2022/03/05 06:32:45;;;;;;;7.78;2.58;;;;;;;11.13;41.06;102880.91;4954745;29;20106;-75
2022/03/05 06:35:11;;;;;;;4.63;2.30;;;;;;;10.84;41.55;102889.47;4954561;29;20034;-75
2022/03/05 06:37:37;;;;;;;6.13;2.35;;;;;;;11.20;41.01;102882.31;4953839;29;20062;-77
2022/03/05 06:40:04;;;;;;;6.53;1.83;;;;;;;11.19;40.98;102883.41;4954525;29;20500;-75
2022/03/05 06:42:29;;;;;;;7.90;2.10;;;;;;;11.23;40.92;102883.69;4954343;29;20034;-75
2022/03/05 06:44:55;;;;;;;6.50;2.05;;;;;;;11.21;40.95;102888.63;4954473;29;20024;-75
2022/03/05 06:47:21;;;;;;;8.75;2.58;;;;;;;11.34;40.75;102899.09;4954664;29;20027;-89
2022/03/05 06:49:46;;;;;;;8.57;2.90;;;;;;;11.36;40.51;102902.38;4955312;29;20031;-88
2022/03/05 06:52:12;;;;;;;7.72;2.17;;;;;;;11.37;40.51;102909.50;4955314;29;20058;-87
2022/03/05 06:54:38;;;;;;;4.32;2.10;;;;;;;11.43;40.32;102919.41;4955343;29;20046;-81
2022/03/05 06:57:04;;;;;;;7.40;2.35;;;;;;;11.40;40.09;102919.91;4955230;29;20039;-76
2022/03/05 06:59:29;;;;;;;6.55;2.33;;;;;;;11.34;40.30;102915.50;4955277;29;20023;-75
2022/03/05 07:01:55;;;;;;;6.60;2.30;;;;;;;11.44;40.09;102922.94;4952413;28;20039;-76
2022/03/05 07:04:21;;;;;;;5.47;2.00;;;;;;;11.26;40.28;102932.41;4957290;28;20058;-76
2022/03/05 07:06:47;;;;;;;5.95;2.17;;;;;;;11.34;40.19;102931.94;4953178;29;20453;-75
2022/03/05 07:09:14;;;;;;;8.27;3.08;;;;;;;11.36;40.23;102938.78;4954040;29;20099;-75
2022/03/05 07:11:40;;;;;;;3.95;1.70;;;;;;;11.23;40.55;102936.50;4953929;28;20059;-75
2022/03/05 07:14:05;;;;;;;8.27;2.80;;;;;;;11.31;40.49;102938.75;4957462;29;20062;-75
2022/03/05 07:16:31;;;;;;;6.28;2.60;;;;;;;11.33;40.48;102946.69;4957880;29;20054;-76
2022/03/05 07:18:57;;;;;;;7.82;2.28;;;;;;;11.27;40.61;102943.13;4958241;29;20367;-87
2022/03/05 07:21:22;;;;;;;12.68;3.25;;;;;;;11.33;40.57;102947.50;4951079;28;20030;-76
2022/03/05 07:23:48;;;;;;;8.77;2.47;;;;;;;11.40;40.31;102941.81;4942798;28;20031;-76
2022/03/05 07:26:13;;;;;;;9.80;2.05;;;;;;;11.43;40.39;102954.97;4941750;28;20421;-78
2022/03/05 07:28:39;;;;;;;7.75;2.10;;;;;;;11.47;40.27;102960.72;4940966;28;20027;-75
2022/03/05 07:31:05;;;;;;;4.68;2.05;;;;;;;11.51;40.35;102965.44;4942245;28;20023;-75
2022/03/05 07:33:30;;;;;;;12.30;2.30;;;;;;;11.48;40.48;102970.59;4941602;28;20102;-76
2022/03/05 07:35:56;;;;;;;13.57;3.72;;;;;;;11.57;40.32;102964.38;4940699;28;20402;-75
2022/03/05 07:38:22;;;;;;;7.47;2.55;;;;;;;11.63;40.28;102979.72;4941458;28;20126;-81
2022/03/05 07:40:47;;;;;;;7.50;3.00;;;;;;;11.58;40.48;102982.44;4941714;28;20035;-75
2022/03/05 07:43:13;;;;;;;5.47;2.13;;;;;;;11.80;40.05;102986.94;4941463;28;20055;-76
2022/03/05 07:45:39;;;;;;;7.45;3.05;;;;;;;11.76;40.14;102983.06;4952476;28;20034;-75
2022/03/05 07:48:05;;;;;;;8.90;2.75;;;;;;;11.75;40.28;102993.22;4953944;28;20020;-75
2022/03/05 07:50:31;;;;;;;14.68;3.65;;;;;;;11.69;40.43;102997.00;4954475;28;20031;-75
2022/03/05 07:52:56;;;;;;;5.20;2.42;;;;;;;11.86;40.29;103002.31;4942280;28;20038;-75
2022/03/05 07:55:22;;;;;;;5.60;2.45;;;;;;;11.90;40.35;102989.75;4941057;28;20028;-76
2022/03/05 07:57:48;;;;;;;10.23;3.05;;;;;;;11.91;40.47;103007.84;4941230;28;20032;-75
2022/03/05 08:00:14;;;;;;;6.88;2.50;;;;;;;12.08;40.13;103008.44;4940912;28;20027;-82
2022/03/05 08:02:40;;;;;;;4.63;2.10;;;;;;;12.11;40.20;103012.59;4941434;28;20027;-75
2022/03/05 08:05:06;;;;;;;6.75;2.15;;;;;;;12.19;40.15;103004.66;4940560;28;20121;-75
2022/03/05 08:07:31;;;;;;;7.88;2.17;;;;;;;12.32;40.02;103016.22;4941199;28;20035;-76
2022/03/05 08:09:57;;;;;;;10.05;2.28;;;;;;;12.34;40.05;103020.34;4941142;28;20070;-75
2022/03/05 08:12:23;;;;;;;4.35;2.17;;;;;;;12.30;40.25;103026.63;4940954;28;20042;-76
2022/03/05 08:14:48;;;;;;;9.93;1.88;;;;;;;12.48;39.99;103028.88;4941387;28;20035;-75
2022/03/05 08:17:14;;;;;;;4.80;2.25;;;;;;;12.41;40.22;103042.03;4940597;28;20075;-78
2022/03/05 08:19:41;;;;;;;11.85;2.53;;;;;;;12.73;39.47;103042.66;4951442;28;20035;-76
2022/03/05 08:22:06;;;;;;;3.83;1.88;;;;;;;12.82;39.46;103051.16;4956280;29;20034;-86
2022/03/05 08:24:32;;;;;;;6.35;3.58;;;;;;;12.79;39.69;103051.72;4956455;28;20035;-87
2022/03/05 08:26:58;;;;;;;6.93;2.38;;;;;;;12.76;39.79;103041.28;4951074;28;20031;-75
2022/03/05 08:29:24;;;;;;;6.63;2.70;;;;;;;12.86;39.68;103051.47;4953052;28;20090;-75
2022/03/05 08:31:50;;;;;;;7.07;2.20;;;;;;;12.85;39.78;103056.13;4956951;29;20055;-75
2022/03/05 08:34:15;;;;;;;4.63;1.67;;;;;;;12.88;39.71;103050.09;4954843;28;20079;-85
2022/03/05 08:36:41;;;;;;;6.00;1.88;;;;;;;13.06;39.52;103065.19;4954727;29;20031;-86
2022/03/05 08:39:07;;;;;;;5.90;2.38;;;;;;;13.06;39.60;103062.44;4955203;29;20054;-76
2022/03/05 08:41:33;;;;;;;6.50;1.48;;;;;;;13.22;39.28;103066.88;4956125;29;20087;-83
2022/03/05 08:43:58;;;;;;;5.35;1.92;;;;;;;13.19;39.41;103056.41;4953029;28;20031;-80
2022/03/05 08:46:24;;;;;;;8.82;1.73;;;;;;;13.24;39.35;103063.88;4939806;28;20379;-82
2022/03/05 08:48:50;;;;;;;6.57;1.75;;;;;;;13.20;39.43;103057.25;4940382;28;20134;-82
2022/03/05 08:51:15;;;;;;;8.00;2.15;;;;;;;13.13;39.59;103068.47;4922446;28;20051;-78
2022/03/05 08:53:41;;;;;;;5.90;1.95;;;;;;;13.14;39.78;103075.63;4939233;28;20552;-78
2022/03/05 08:56:07;;;;;;;10.18;2.45;;;;;;;13.29;39.55;103077.56;4940089;28;20074;-84
2022/03/05 08:58:33;;;;;;;9.68;1.83;;;;;;;13.57;38.98;103067.97;4940136;28;20027;-84
2022/03/05 09:01:01;;;;;;;8.20;2.05;;;;;;;13.69;38.70;103057.50;4939647;28;21063;-83
2022/03/05 09:03:27;;;;;;;9.02;1.83;;;;;;;13.74;38.78;103062.97;4938955;28;20027;-83
2022/03/05 09:05:53;;;;;;;9.30;2.15;;;;;;;13.89;38.40;103067.59;4939689;28;20486;-78
2022/03/05 09:08:19;;;;;;;14.20;2.58;;;;;;;13.93;38.34;103071.47;4939309;28;20086;-82
2022/03/05 09:10:45;;;;;;;11.15;2.88;;;;;;;13.92;38.68;103069.81;4939014;28;20054;-77
2022/03/05 09:13:11;;;;;;;4.50;1.90;;;;;;;14.17;38.15;103077.16;4935027;28;21100;-78
2022/03/05 09:15:37;;;;;;;8.38;2.55;;;;;;;14.15;38.15;103085.69;4919536;28;20118;-77
2022/03/05 09:18:03;;;;;;;7.97;2.55;;;;;;;14.24;38.08;103077.69;4939558;28;20486;-83
2022/03/05 09:20:29;;;;;;;13.43;2.78;;;;;;;14.26;38.10;103085.63;4934103;28;20023;-77
2022/03/05 09:22:55;;;;;;;12.05;4.22;;;;;;;14.36;38.18;103091.94;4938970;28;20035;-78
2022/03/05 09:25:22;;;;;;;9.68;2.55;;;;;;;14.13;38.18;103084.31;4941080;28;21103;-85
2022/03/05 09:27:47;;;;;;;11.30;3.92;;;;;;;14.38;37.95;103097.97;4950973;28;20403;-85
2022/03/05 09:30:13;;;;;;;5.75;2.35;;;;;;;14.50;37.87;103094.09;4955330;29;20038;-85
2022/03/05 09:32:39;;;;;;;7.15;2.42;;;;;;;14.60;37.88;103086.63;4938148;29;20023;-88
2022/03/05 09:35:05;;;;;;;7.40;2.20;;;;;;;14.72;37.42;103083.53;4954762;28;20515;-87
2022/03/05 09:37:33;;;;;;;13.35;2.17;;;;;;;14.57;37.82;103089.94;4952124;28;20062;-85
2022/03/05 09:39:59;;;;;;;5.10;1.95;;;;;;;14.69;37.43;103084.09;4920176;29;20455;-78
2022/03/05 09:42:25;;;;;;;6.85;1.90;;;;;;;14.94;37.22;103092.19;4919513;29;20027;-85
2022/03/05 09:44:51;;;;;;;6.22;2.22;;;;;;;14.98;37.20;103071.25;4919362;29;20094;-80
2022/03/05 09:47:17;;;;;;;7.72;2.30;;;;;;;14.84;37.37;103083.19;4901750;29;20479;-80
2022/03/05 09:49:43;;;;;;;15.07;2.80;;;;;;;15.04;37.29;103084.97;4922322;29;20055;-83
2022/03/05 09:52:09;;;;;;;16.40;3.40;;;;;;;14.91;37.67;103087.25;4934247;29;20048;-78
2022/03/05 09:54:35;;;;;;;9.00;3.20;;;;;;;15.04;37.40;103085.81;4924156;29;20024;-85
2022/03/05 09:57:02;;;;;;;5.78;1.60;;;;;;;15.10;37.52;103089.31;4919881;29;20390;-85
2022/03/05 09:59:28;;;;;;;6.75;2.20;;;;;;;15.13;37.20;103083.25;4920344;29;20115;-85
2022/03/05 10:01:55;;;;;;;7.45;1.67;;;;;;;15.40;36.83;103086.31;4920169;29;20024;-86
2022/03/05 10:04:23;;;;;;;10.98;2.55;;;;;;;15.30;37.01;103077.34;4898869;29;20036;-80
2022/03/05 10:07:09;;;;;;;10.95;2.35;;;;;;;15.50;36.99;103072.47;4916738;29;20055;-84
2022/03/05 10:09:35;;;;;;;4.35;1.48;;;;;;;15.47;37.16;103086.81;4902087;29;20035;-81
2022/03/05 10:12:01;;;;;;;5.93;2.10;;;;;;;15.28;37.35;103077.63;4901363;29;20043;-82
2022/03/05 10:14:26;;;;;;;6.88;1.80;;;;;;;14.83;37.69;103085.13;4917732;29;20028;-81
2022/03/05 10:17:00;;;;;;;5.97;1.92;;;;;;;15.07;37.40;103079.72;4918267;29;20070;-87
2022/03/05 10:19:27;;;;;;;7.65;2.60;;;;;;;15.33;37.44;103085.00;4900479;29;21074;-81
2022/03/05 10:21:57;;;;;;;11.57;2.28;;;;;;;15.30;37.11;103083.66;4916337;29;20035;-79
2022/03/05 10:24:55;;;;;;;9.43;2.05;;;;;;;14.91;37.65;103073.50;4916730;29;20042;-81
2022/03/05 10:27:21;;;;;;;9.68;2.65;;;;;;;15.39;37.25;103081.94;4905870;29;20039;-86
2022/03/05 10:29:46;;;;;;;6.55;2.50;;;;;;;15.73;36.48;103084.69;4933095;29;20043;-85
2022/03/05 10:32:15;;;;;;;9.00;2.67;;;;;;;15.79;36.72;103089.03;4931941;29;20056;-77
2022/03/05 10:34:48;;;;;;;4.53;1.30;;;;;;;15.17;37.51;103098.91;4921750;29;20404;-81
2022/03/05 10:37:14;;;;;;;8.88;1.98;;;;;;;15.32;37.54;103097.97;4916998;29;20123;-79
2022/03/05 10:39:39;;;;;;;6.53;1.75;;;;;;;14.92;38.11;103101.84;4932292;28;20082;-86
2022/03/05 10:42:25;;;;;;;8.13;2.17;;;;;;;14.88;38.26;103109.03;4938370;28;20071;-77
2022/03/05 10:45:03;;;;;;;5.05;1.90;;;;;;;15.07;37.99;103096.25;4935790;28;20043;-78
2022/03/05 10:47:37;;;;;;;6.05;1.50;;;;;;;15.03;37.60;103103.41;4938669;28;20094;-79
2022/03/05 10:50:19;;;;;;;8.88;2.40;;;;;;;15.06;37.59;103100.09;4940449;28;20029;-84
2022/03/05 10:52:47;;;;;;;9.57;2.05;;;;;;;15.21;37.71;103102.75;4940586;28;20027;-76
2022/03/05 10:55:18;;;;;;;6.28;1.95;;;;;;;15.04;38.02;103107.84;4941175;28;20035;-77
2022/03/05 10:58:01;;;;;;;6.22;2.00;;;;;;;15.43;37.39;103107.81;4940636;28;20035;-81
2022/03/05 11:00:28;;;;;;;9.10;1.73;;;;;;;15.51;36.99;103103.59;4939700;28;20764;-76
2022/03/05 11:02:56;;;;;;;5.57;1.85;;;;;;;15.17;37.97;103109.09;4939736;28;20035;-75
2022/03/05 11:05:23;;;;;;;16.25;3.30;;;;;;;16.21;36.40;103105.94;4940708;28;20033;-77
2022/03/05 11:07:49;;;;;;;5.82;2.38;;;;;;;15.36;37.57;103109.25;4937843;28;20070;-76
2022/03/05 11:10:21;;;;;;;4.15;1.63;;;;;;;15.36;37.81;103104.56;4940353;28;20046;-87
2022/03/05 11:12:52;;;;;;;6.57;1.60;;;;;;;16.04;36.52;103109.19;4942060;28;20077;-90
2022/03/05 11:15:21;;;;;;;6.32;1.92;;;;;;;15.34;37.82;103103.19;4940862;28;20031;-75
2022/03/05 11:17:47;;;;;;;9.05;2.05;;;;;;;15.37;38.15;103097.13;4941219;28;20032;-75
2022/03/05 11:20:14;;;;;;;11.60;2.25;;;;;;;15.68;37.53;103097.69;4943110;28;20035;-76